createdAt,value
2022-09-18T00:01:31.792Z,46.44
2022-09-18T00:04:02.418Z,46.42
2022-09-18T00:06:32.362Z,46.21
2022-09-18T00:09:02.748Z,46.38
2022-09-18T00:11:34.770Z,46.49
2022-09-18T00:14:03.275Z,46.50
2022-09-18T00:16:31.805Z,46.42
2022-09-18T00:19:00.381Z,46.14
2022-09-18T00:21:29.930Z,45.95
2022-09-18T00:24:01.203Z,46.24
2022-09-18T00:26:30.001Z,46.02
2022-09-18T00:28:59.345Z,45.99
2022-09-18T00:31:30.026Z,46.09
2022-09-18T00:33:59.166Z,46.10
2022-09-18T00:36:27.887Z,46.13
2022-09-18T00:38:56.370Z,45.90
2022-09-18T00:41:27.497Z,45.94
2022-09-18T00:43:58.531Z,45.84
2022-09-18T00:46:28.431Z,45.91
2022-09-18T00:49:04.113Z,45.89
2022-09-18T00:51:33.231Z,45.97
2022-09-18T00:54:06.663Z,45.95
2022-09-18T00:56:36.424Z,45.78
2022-09-18T01:01:35.621Z,45.68
2022-09-18T01:04:04.245Z,45.62
2022-09-18T01:06:37.056Z,45.61
2022-09-18T01:09:10.520Z,45.80
2022-09-18T01:11:45.301Z,45.57
2022-09-18T01:14:24.159Z,45.67
2022-09-18T01:16:57.684Z,45.56
2022-09-18T01:20:22.594Z,45.39
2022-09-18T01:23:04.319Z,45.48
2022-09-18T01:25:38.487Z,45.54
2022-09-18T01:28:16.063Z,45.40
2022-09-18T01:30:46.690Z,45.33
2022-09-18T01:33:19.454Z,45.45
2022-09-18T01:35:50.419Z,45.31
2022-09-18T01:38:22.023Z,45.29
2022-09-18T01:40:52.590Z,45.29
2022-09-18T01:43:22.570Z,45.28
2022-09-18T01:45:52.909Z,45.35
2022-09-18T01:48:30.406Z,45.24
2022-09-18T01:51:02.330Z,45.08
2022-09-18T01:53:33.777Z,45.01
2022-09-18T01:56:06.371Z,45.11
2022-09-18T01:58:36.481Z,45.16
2022-09-18T02:01:07.915Z,45.10
2022-09-18T02:03:39.534Z,45.13
2022-09-18T02:06:10.092Z,44.72
2022-09-18T02:08:42.277Z,45.08
2022-09-18T02:11:12.212Z,45.03
2022-09-18T02:13:43.728Z,44.66
2022-09-18T02:16:16.281Z,44.81
2022-09-18T02:18:47.279Z,44.86
2022-09-18T02:21:21.924Z,44.60
2022-09-18T02:23:50.242Z,44.87
2022-09-18T02:26:18.677Z,44.80
2022-09-18T02:28:48.389Z,44.84
2022-09-18T02:31:17.993Z,44.73
2022-09-18T02:33:46.431Z,44.74
2022-09-18T02:36:52.224Z,44.78
2022-09-18T02:39:46.762Z,44.92
2022-09-18T02:42:26.141Z,45.08
2022-09-18T02:45:00.100Z,44.75
2022-09-18T02:47:37.113Z,45.06
2022-09-18T02:50:11.649Z,44.94
2022-09-18T02:52:43.246Z,44.95
2022-09-18T02:55:14.145Z,44.91
2022-09-18T02:57:45.503Z,44.83
2022-09-18T03:00:18.627Z,44.85
2022-09-18T03:02:47.663Z,44.71
2022-09-18T03:05:16.282Z,44.75
2022-09-18T03:07:44.719Z,44.76
2022-09-18T03:10:13.161Z,44.71
2022-09-18T03:12:41.580Z,44.72
2022-09-18T03:15:11.655Z,44.73
2022-09-18T03:17:41.547Z,44.86
2022-09-18T03:20:10.629Z,44.84
2022-09-18T03:22:39.080Z,44.82
2022-09-18T03:25:09.736Z,44.82
2022-09-18T03:27:38.342Z,44.68
2022-09-18T03:30:08.173Z,44.63
2022-09-18T03:32:36.616Z,44.70
2022-09-18T03:35:08.102Z,44.75
2022-09-18T03:37:36.578Z,44.65
2022-09-18T03:40:05.837Z,44.85
2022-09-18T03:42:34.300Z,44.63
2022-09-18T03:45:02.714Z,44.76
2022-09-18T03:47:35.697Z,44.69
2022-09-18T03:50:07.694Z,44.74
2022-09-18T03:52:37.087Z,44.79
2022-09-18T03:55:06.554Z,44.62
2022-09-18T03:57:34.955Z,44.75
2022-09-18T04:00:03.770Z,44.54
2022-09-18T04:02:32.256Z,44.74
2022-09-18T04:05:00.868Z,44.59
2022-09-18T04:07:30.722Z,44.71
2022-09-18T04:09:59.530Z,44.75
2022-09-18T04:12:27.991Z,44.77
2022-09-18T04:14:56.466Z,44.63
2022-09-18T04:17:25.122Z,44.52
2022-09-18T04:19:55.019Z,44.58
2022-09-18T04:22:23.568Z,44.42
2022-09-18T04:24:53.445Z,44.35
2022-09-18T04:27:22.208Z,44.38
2022-09-18T04:29:50.747Z,44.46
2022-09-18T04:32:19.228Z,44.36
2022-09-18T04:34:47.691Z,44.37
2022-09-18T04:37:16.175Z,44.44
2022-09-18T04:39:44.692Z,44.36
2022-09-18T04:42:14.639Z,44.43
2022-09-18T04:44:43.057Z,44.51
2022-09-18T04:47:11.485Z,44.39
2022-09-18T04:49:39.928Z,44.39
2022-09-18T04:52:08.358Z,44.36
2022-09-18T04:54:38.120Z,44.32
2022-09-18T04:57:06.772Z,44.39
2022-09-18T04:59:36.821Z,44.48
2022-09-18T05:02:05.643Z,44.38
2022-09-18T05:04:34.384Z,44.38
2022-09-18T05:07:05.013Z,44.53
2022-09-18T05:09:33.906Z,44.58
2022-09-18T05:12:02.823Z,44.81
2022-09-18T05:14:31.358Z,44.69
2022-09-18T05:17:01.577Z,44.81
2022-09-18T05:19:30.221Z,45.01
2022-09-18T05:21:58.655Z,45.02
2022-09-18T05:24:27.205Z,44.93
2022-09-18T05:26:55.648Z,45.08
2022-09-18T05:29:24.174Z,45.15
2022-09-18T05:31:52.762Z,45.09
2022-09-18T05:34:22.710Z,45.23
2022-09-18T05:36:51.072Z,45.53
2022-09-18T05:39:19.648Z,45.23
2022-09-18T05:41:51.237Z,45.29
2022-09-18T05:44:20.051Z,45.54
2022-09-18T05:46:49.196Z,45.49
2022-09-18T05:49:17.676Z,45.28
2022-09-18T05:51:47.513Z,45.42
2022-09-18T05:54:16.044Z,45.39
2022-09-18T05:56:44.478Z,45.41
2022-09-18T05:59:12.851Z,45.37
2022-09-18T06:01:46.304Z,45.33
2022-09-18T06:04:15.434Z,45.57
2022-09-18T06:06:43.918Z,45.33
2022-09-18T06:09:13.842Z,45.31
2022-09-18T06:11:42.368Z,45.41
2022-09-18T06:14:10.831Z,45.39
2022-09-18T06:16:42.467Z,45.34
2022-09-18T06:19:11.126Z,45.66
2022-09-18T06:21:39.810Z,45.55
2022-09-18T06:24:08.985Z,45.51
2022-09-18T06:26:38.908Z,45.34
2022-09-18T06:29:07.345Z,45.53
2022-09-18T06:31:35.771Z,45.53
2022-09-18T06:34:04.287Z,45.45
2022-09-18T06:36:32.754Z,45.17
2022-09-18T06:39:01.717Z,45.36
2022-09-18T06:41:30.174Z,45.31
2022-09-18T06:44:00.091Z,45.33
2022-09-18T06:46:28.593Z,45.28
2022-09-18T06:48:57.111Z,45.09
2022-09-18T06:51:25.576Z,45.24
2022-09-18T06:53:54.077Z,45.25
2022-09-18T06:56:22.545Z,45.53
2022-09-18T06:58:53.597Z,45.43
2022-09-18T07:01:23.487Z,45.50
2022-09-18T07:03:52.075Z,45.49
2022-09-18T07:06:20.455Z,45.54
2022-09-18T07:08:49.073Z,45.30
2022-09-18T07:11:17.774Z,45.50
2022-09-18T07:13:47.359Z,45.40
2022-09-18T07:16:15.794Z,45.18
2022-09-18T07:18:46.817Z,45.15
2022-09-18T07:21:15.432Z,45.21
2022-09-18T07:23:43.830Z,45.47
2022-09-18T07:26:12.294Z,45.26
2022-09-18T07:28:40.688Z,45.21
2022-09-18T07:31:09.153Z,45.40
2022-09-18T07:33:37.650Z,45.50
2022-09-18T07:36:07.789Z,45.26
2022-09-18T07:38:36.245Z,45.35
2022-09-18T07:41:05.083Z,45.51
2022-09-18T07:43:33.510Z,45.32
2022-09-18T07:46:02.592Z,45.35
2022-09-18T07:48:31.021Z,45.55
2022-09-18T07:50:59.797Z,45.35
2022-09-18T07:53:29.628Z,45.58
2022-09-18T07:55:58.163Z,45.25
2022-09-18T07:58:26.945Z,45.49
2022-09-18T08:00:55.449Z,45.95
2022-09-18T08:03:25.393Z,46.05
2022-09-18T08:05:53.940Z,46.48
2022-09-18T08:08:22.323Z,46.03
2022-09-18T08:10:52.361Z,45.85
2022-09-18T08:13:20.827Z,46.23
2022-09-18T08:15:49.572Z,46.36
2022-09-18T08:18:18.285Z,46.94
2022-09-18T08:20:46.968Z,47.97
2022-09-18T08:23:15.429Z,47.42
2022-09-18T08:25:44.171Z,47.07
2022-09-18T08:28:14.108Z,46.81
2022-09-18T08:30:42.705Z,46.77
2022-09-18T08:33:12.042Z,46.92
2022-09-18T08:35:40.620Z,46.54
2022-09-18T08:38:11.293Z,46.94
2022-09-18T08:41:25.305Z,47.02
2022-09-18T08:44:02.620Z,46.96
2022-09-18T08:46:35.449Z,46.57
2022-09-18T08:49:16.500Z,46.79
2022-09-18T08:51:50.357Z,46.57
2022-09-18T08:54:23.869Z,46.57
2022-09-18T08:56:52.974Z,46.58
2022-09-18T08:59:30.315Z,46.32
2022-09-18T09:02:16.267Z,46.04
2022-09-18T09:04:45.017Z,46.41
2022-09-18T09:07:28.878Z,46.46
2022-09-18T09:10:36.842Z,46.44
2022-09-18T09:13:35.973Z,46.39
2022-09-18T09:16:08.674Z,46.38
2022-09-18T09:18:41.460Z,46.49
2022-09-18T09:21:17.729Z,46.32
2022-09-18T09:23:57.186Z,46.29
2022-09-18T09:26:25.740Z,46.23
2022-09-18T09:28:56.677Z,46.10
2022-09-18T09:31:28.971Z,46.01
2022-09-18T09:33:59.796Z,45.83
2022-09-18T09:36:30.615Z,45.66
2022-09-18T09:39:01.506Z,45.78
2022-09-18T09:41:35.019Z,45.69
2022-09-18T09:44:16.306Z,45.59
2022-09-18T09:46:53.420Z,45.26
2022-09-18T09:49:25.706Z,44.84
2022-09-18T09:52:02.083Z,44.65
2022-09-18T09:54:32.806Z,44.50
2022-09-18T09:57:09.495Z,44.22
2022-09-18T09:59:45.508Z,44.26
2022-09-18T10:02:53.435Z,44.46
2022-09-18T10:05:27.669Z,44.34
2022-09-18T10:07:59.896Z,44.05
2022-09-18T10:10:32.475Z,43.81
2022-09-18T10:13:04.851Z,43.75
2022-09-18T10:15:36.529Z,43.93
2022-09-18T10:18:15.667Z,43.96
2022-09-18T10:20:44.664Z,43.90
2022-09-18T10:23:17.945Z,44.08
2022-09-18T10:25:50.047Z,43.99
2022-09-18T10:28:18.791Z,42.03
2022-09-18T10:30:55.983Z,42.11
2022-09-18T10:33:38.322Z,42.37
2022-09-18T10:36:23.821Z,42.67
2022-09-18T10:38:53.262Z,42.68
2022-09-18T10:41:34.523Z,42.66
2022-09-18T10:44:22.797Z,42.73
2022-09-18T10:46:55.162Z,42.50
2022-09-18T10:49:29.342Z,42.67
2022-09-18T10:52:32.605Z,44.26
2022-09-18T10:55:17.219Z,44.73
2022-09-18T10:57:46.849Z,44.58
2022-09-18T11:00:39.338Z,44.50
2022-09-18T11:03:22.997Z,44.72
2022-09-18T11:05:55.913Z,44.67
2022-09-18T11:08:27.205Z,44.70
2022-09-18T11:11:06.360Z,44.94
2022-09-18T11:13:35.130Z,45.34
2022-09-18T11:16:05.521Z,45.16
2022-09-18T11:18:34.486Z,44.96
2022-09-18T11:21:06.622Z,45.13
2022-09-18T11:23:36.042Z,45.07
2022-09-18T11:26:19.486Z,45.46
2022-09-18T11:29:03.596Z,45.46
2022-09-18T11:31:44.774Z,45.15
2022-09-18T11:34:21.969Z,45.34
2022-09-18T11:36:54.124Z,45.73
2022-09-18T11:39:29.106Z,46.12
2022-09-18T11:41:57.683Z,46.67
2022-09-18T11:44:28.548Z,47.26
2022-09-18T11:47:20.731Z,47.36
2022-09-18T11:49:51.489Z,47.41
2022-09-18T11:52:24.598Z,47.71
2022-09-18T11:54:56.425Z,47.52
2022-09-18T11:57:27.939Z,47.49
2022-09-18T11:59:59.151Z,47.29
2022-09-18T12:02:33.778Z,47.76
2022-09-18T12:05:11.197Z,47.50
2022-09-18T12:07:44.337Z,47.46
2022-09-18T12:10:18.078Z,46.91
2022-09-18T12:12:49.363Z,46.85
2022-09-18T12:15:20.380Z,47.12
2022-09-18T12:17:52.323Z,47.23
2022-09-18T12:20:24.229Z,46.88
2022-09-18T12:22:55.589Z,47.00
2022-09-18T12:25:29.926Z,46.95
2022-09-18T12:28:01.980Z,47.92
2022-09-18T12:30:36.364Z,47.23
2022-09-18T12:33:18.069Z,47.19
2022-09-18T12:36:14.229Z,47.62
2022-09-18T12:38:57.953Z,47.12
2022-09-18T12:41:41.862Z,47.01
2022-09-18T12:44:45.145Z,48.22
2022-09-18T12:47:33.153Z,48.14
2022-09-18T12:50:23.603Z,48.06
2022-09-18T12:53:09.163Z,47.91
2022-09-18T12:56:04.494Z,48.16
2022-09-18T12:59:12.551Z,47.63
2022-09-18T13:01:45.617Z,48.16
2022-09-18T13:04:20.394Z,48.59
2022-09-18T13:06:53.053Z,47.91
2022-09-18T13:09:25.957Z,48.00
2022-09-18T13:11:58.767Z,48.07
2022-09-18T13:14:29.999Z,47.87
2022-09-18T13:17:02.749Z,48.13
2022-09-18T13:19:33.806Z,48.12
2022-09-18T13:22:05.727Z,47.02
2022-09-18T13:24:36.309Z,47.55
2022-09-18T13:27:10.309Z,48.02
2022-09-18T13:29:59.045Z,47.74
2022-09-18T13:32:40.197Z,48.65
2022-09-18T13:35:22.349Z,47.91
2022-09-18T13:37:50.924Z,48.14
2022-09-18T13:40:35.574Z,47.94
2022-09-18T13:43:47.520Z,48.71
2022-09-18T13:46:39.745Z,48.62
2022-09-18T13:49:28.947Z,48.54
2022-09-18T13:51:57.647Z,48.28
2022-09-18T13:54:29.355Z,48.44
2022-09-18T13:57:21.493Z,47.86
2022-09-18T13:59:54.363Z,47.87
2022-09-18T14:02:34.660Z,47.53
2022-09-18T14:05:34.072Z,47.40
2022-09-18T14:08:16.159Z,47.39
2022-09-18T14:11:19.540Z,47.34
2022-09-18T14:13:54.223Z,47.49
2022-09-18T14:16:35.560Z,47.05
2022-09-18T14:19:07.241Z,47.28
2022-09-18T14:21:41.165Z,47.21
2022-09-18T14:24:39.321Z,46.98
2022-09-18T14:27:37.212Z,47.02
2022-09-18T14:30:22.865Z,46.96
2022-09-18T14:33:23.882Z,46.80
2022-09-18T14:35:58.857Z,46.83
2022-09-18T14:38:32.955Z,46.84
2022-09-18T14:41:18.235Z,46.78
2022-09-18T14:43:49.889Z,47.01
2022-09-18T14:46:22.115Z,46.91
2022-09-18T14:48:52.097Z,46.85
2022-09-18T14:51:22.705Z,47.03
2022-09-18T14:53:52.961Z,46.94
2022-09-18T14:56:25.221Z,47.03
2022-09-18T14:58:53.685Z,46.96
2022-09-18T15:01:24.440Z,47.03
2022-09-18T15:03:55.167Z,47.09
2022-09-18T15:06:25.276Z,46.84
2022-09-18T15:08:54.651Z,46.95
2022-09-18T15:11:32.124Z,47.16
2022-09-18T15:14:21.441Z,46.94
2022-09-18T15:16:56.603Z,47.31
2022-09-18T15:19:27.205Z,47.30
2022-09-18T15:21:57.116Z,47.41
2022-09-18T15:24:25.971Z,47.42
2022-09-18T15:26:56.988Z,47.13
2022-09-18T15:29:27.767Z,47.47
2022-09-18T15:31:56.519Z,47.14
2022-09-18T15:34:28.260Z,46.90
2022-09-18T15:36:57.644Z,46.81
2022-09-18T15:39:30.975Z,46.70
2022-09-18T15:42:19.121Z,46.75
2022-09-18T15:45:20.271Z,46.86
2022-09-18T15:47:49.171Z,46.70
2022-09-18T15:50:46.474Z,46.85
2022-09-18T15:53:29.609Z,47.07
2022-09-18T15:56:04.646Z,47.13
2022-09-18T15:58:45.250Z,46.94
2022-09-18T16:01:23.502Z,47.61
2022-09-18T16:04:04.479Z,47.23
2022-09-18T16:06:43.719Z,47.71
2022-09-18T16:09:24.196Z,46.84
2022-09-18T16:11:53.073Z,47.69
2022-09-18T16:14:47.730Z,47.58
2022-09-18T16:17:57.023Z,47.45
2022-09-18T16:20:39.822Z,47.36
2022-09-18T16:23:21.118Z,47.28
2022-09-18T16:26:10.530Z,47.18
2022-09-18T16:28:43.931Z,47.37
2022-09-18T16:31:13.157Z,47.72
2022-09-18T16:33:57.394Z,48.00
2022-09-18T16:36:32.938Z,47.55
2022-09-18T16:39:04.243Z,47.86
2022-09-18T16:41:33.993Z,48.30
2022-09-18T16:44:04.445Z,47.67
2022-09-18T16:46:36.220Z,47.64
2022-09-18T16:49:05.053Z,47.50
2022-09-18T16:51:33.765Z,47.54
2022-09-18T16:54:03.625Z,47.43
2022-09-18T16:56:34.993Z,47.93
2022-09-18T16:59:04.662Z,47.48
2022-09-18T17:01:48.491Z,47.38
2022-09-18T17:04:23.604Z,47.33
2022-09-18T17:06:52.071Z,47.15
2022-09-18T17:09:23.936Z,47.33
2022-09-18T17:11:52.648Z,47.19
2022-09-18T17:14:21.479Z,47.31
2022-09-18T17:16:50.143Z,47.41
2022-09-18T17:19:19.060Z,47.01
2022-09-18T17:21:47.734Z,47.44
2022-09-18T17:24:17.474Z,47.32
2022-09-18T17:26:47.368Z,47.28
2022-09-18T17:29:15.843Z,47.32
2022-09-18T17:31:45.013Z,48.03
2022-09-18T17:34:16.653Z,47.50
2022-09-18T17:36:45.584Z,47.75
2022-09-18T17:39:14.114Z,47.49
2022-09-18T17:41:43.412Z,48.00
2022-09-18T17:44:13.334Z,47.78
2022-09-18T17:46:41.853Z,48.72
2022-09-18T17:49:10.455Z,49.13
2022-09-18T17:51:38.908Z,47.69
2022-09-18T17:54:08.450Z,47.05
2022-09-18T17:56:37.230Z,47.40
2022-09-18T17:59:08.790Z,48.47
2022-09-18T18:01:43.135Z,47.97
2022-09-18T18:04:11.747Z,49.30
2022-09-18T18:06:40.271Z,49.49
2022-09-18T18:09:09.998Z,49.34
2022-09-18T18:11:38.854Z,49.31
2022-09-18T18:14:07.478Z,49.36
2022-09-18T18:16:36.203Z,49.21
2022-09-18T18:19:08.355Z,49.18
2022-09-18T18:21:37.039Z,49.23
2022-09-18T18:24:09.063Z,49.11
2022-09-18T18:26:37.870Z,49.18
2022-09-18T18:29:11.031Z,49.06
2022-09-18T18:31:40.054Z,49.10
2022-09-18T18:34:10.938Z,49.08
2022-09-18T18:36:43.140Z,49.16
2022-09-18T18:39:14.884Z,48.77
2022-09-18T18:41:45.303Z,49.22
2022-09-18T18:44:15.003Z,49.16
2022-09-18T18:46:44.952Z,49.04
2022-09-18T18:49:16.618Z,49.13
2022-09-18T18:51:48.048Z,49.34
2022-09-18T18:54:17.822Z,49.23
2022-09-18T18:56:47.298Z,49.29
2022-09-18T18:59:19.178Z,49.12
2022-09-18T19:01:48.349Z,49.13
2022-09-18T19:04:20.006Z,49.29
2022-09-18T19:06:49.837Z,49.29
2022-09-18T19:09:20.798Z,49.29
2022-09-18T19:11:50.172Z,49.38
2022-09-18T19:14:20.662Z,49.16
2022-09-18T19:16:49.529Z,49.33
2022-09-18T19:19:21.060Z,49.24
2022-09-18T19:21:49.496Z,49.35
2022-09-18T19:24:18.713Z,49.45
2022-09-18T19:26:47.852Z,49.37
2022-09-18T19:29:17.694Z,49.29
2022-09-18T19:31:46.924Z,49.06
2022-09-18T19:34:17.824Z,48.57
2022-09-18T19:36:50.213Z,48.89
2022-09-18T19:39:19.855Z,49.71
2022-09-18T19:41:52.148Z,49.70
2022-09-18T19:44:26.502Z,49.47
2022-09-18T19:46:56.173Z,49.42
2022-09-18T19:49:28.851Z,49.31
2022-09-18T19:51:58.700Z,49.20
2022-09-18T19:54:27.259Z,49.34
2022-09-18T19:56:55.653Z,49.21
2022-09-18T19:59:24.100Z,49.04
2022-09-18T20:01:53.747Z,49.23
2022-09-18T20:04:22.206Z,49.20
2022-09-18T20:06:50.768Z,49.07
2022-09-18T20:09:20.846Z,49.23
2022-09-18T20:11:51.095Z,49.12
2022-09-18T20:14:19.509Z,48.95
2022-09-18T20:16:48.044Z,49.09
2022-09-18T20:19:16.516Z,48.98
2022-09-18T20:21:45.110Z,49.12
2022-09-18T20:24:13.858Z,48.92
2022-09-18T20:26:44.512Z,48.89
2022-09-18T20:29:16.062Z,48.91
2022-09-18T20:31:46.131Z,48.96
2022-09-18T20:34:16.102Z,48.85
2022-09-18T20:36:44.661Z,48.73
2022-09-18T20:39:13.226Z,48.86
2022-09-18T20:41:43.163Z,48.78
2022-09-18T20:44:11.783Z,48.60
2022-09-18T20:46:42.923Z,48.83
2022-09-18T20:49:17.445Z,48.84
2022-09-18T20:51:46.126Z,48.84
2022-09-18T20:54:15.139Z,48.93
2022-09-18T20:56:45.010Z,48.75
2022-09-18T20:59:16.166Z,48.79
2022-09-18T21:01:45.074Z,48.78
2022-09-18T21:04:17.517Z,48.82
2022-09-18T21:06:47.433Z,48.59
2022-09-18T21:09:16.271Z,48.75
2022-09-18T21:11:46.062Z,48.67
2022-09-18T21:14:15.545Z,48.57
2022-09-18T21:16:44.981Z,48.63
2022-09-18T21:19:14.627Z,48.54
2022-09-18T21:21:43.015Z,48.60
2022-09-18T21:24:11.736Z,48.77
2022-09-18T21:26:41.415Z,48.49
2022-09-18T21:29:13.742Z,48.56
2022-09-18T21:31:43.332Z,48.46
2022-09-18T21:34:13.417Z,48.48
2022-09-18T21:36:44.014Z,48.42
2022-09-18T21:39:13.283Z,48.43
2022-09-18T21:41:46.056Z,48.44
2022-09-18T21:44:17.382Z,48.44
2022-09-18T21:46:46.256Z,48.42
2022-09-18T21:49:16.364Z,48.47
2022-09-18T21:51:44.985Z,48.41
2022-09-18T21:54:15.782Z,48.34
2022-09-18T21:56:44.698Z,48.21
2022-09-18T21:59:13.429Z,48.13
2022-09-18T22:01:43.690Z,47.39
2022-09-18T22:04:13.496Z,48.29
2022-09-18T22:06:43.916Z,48.37
2022-09-18T22:09:13.612Z,48.29
2022-09-18T22:11:42.453Z,48.39
2022-09-18T22:14:12.704Z,48.39
2022-09-18T22:16:43.128Z,48.21
2022-09-18T22:19:11.531Z,48.27
2022-09-18T22:21:41.847Z,48.32
2022-09-18T22:24:17.809Z,48.19
2022-09-18T22:26:48.568Z,48.09
2022-09-18T22:29:18.379Z,48.21
2022-09-18T22:31:48.804Z,48.10
2022-09-18T22:34:18.951Z,48.05
2022-09-18T22:36:47.645Z,48.31
2022-09-18T22:39:17.089Z,48.65
2022-09-18T22:41:45.723Z,48.94
2022-09-18T22:44:14.763Z,48.78
2022-09-18T22:46:44.401Z,48.60
2022-09-18T22:49:16.405Z,48.51
2022-09-18T22:51:45.309Z,48.69
2022-09-18T22:54:14.200Z,48.58
2022-09-18T22:56:44.565Z,48.53
2022-09-18T22:59:13.537Z,48.36
2022-09-18T23:01:47.810Z,48.55
2022-09-18T23:04:18.213Z,48.50
2022-09-18T23:06:46.765Z,48.42
2022-09-18T23:09:16.003Z,48.61
2022-09-18T23:11:45.360Z,48.68
2022-09-18T23:14:15.073Z,48.52
2022-09-18T23:16:43.563Z,48.53
2022-09-18T23:19:17.865Z,48.26
2022-09-18T23:21:46.409Z,48.25
2022-09-18T23:24:16.126Z,48.35
2022-09-18T23:26:46.861Z,48.47
2022-09-18T23:29:18.372Z,48.34
2022-09-18T23:31:50.454Z,48.37
2022-09-18T23:34:23.552Z,48.38
2022-09-18T23:36:54.188Z,48.42
2022-09-18T23:39:24.442Z,48.18
2022-09-18T23:41:53.211Z,48.13
2022-09-18T23:44:22.993Z,48.05
2022-09-18T23:46:51.514Z,48.18
2022-09-18T23:49:23.597Z,48.23
2022-09-18T23:51:53.500Z,48.18
2022-09-18T23:54:23.432Z,48.32
2022-09-18T23:56:52.324Z,48.14
2022-09-18T23:59:23.113Z,48.01
